createdAt,value
2023-11-30T00:01:35.822Z,27.87
2023-11-30T00:04:38.459Z,21.58
2023-11-30T00:07:41.360Z,32.33
2023-11-30T00:10:44.043Z,29.40
2023-11-30T00:13:46.694Z,25.10
2023-11-30T00:16:49.368Z,26.70
2023-11-30T00:19:52.053Z,27.75
2023-11-30T00:22:54.735Z,27.25
2023-11-30T00:25:57.329Z,29.73
2023-11-30T00:29:00.250Z,24.37
2023-11-30T00:32:02.876Z,27.87
2023-11-30T00:35:06.074Z,23.67
2023-11-30T00:38:08.792Z,21.88
2023-11-30T00:41:18.072Z,25.30
2023-11-30T00:44:22.615Z,22.77
2023-11-30T00:47:25.397Z,22.03
2023-11-30T00:50:28.154Z,25.80
2023-11-30T00:53:31.364Z,23.10
2023-11-30T00:56:34.020Z,24.55
2023-11-30T00:59:36.623Z,27.87
2023-11-30T01:02:39.934Z,33.27
2023-11-30T01:05:43.240Z,28.95
2023-11-30T01:08:45.880Z,25.75
2023-11-30T01:11:48.554Z,25.30
2023-11-30T01:14:51.474Z,40.03
2023-11-30T01:17:54.286Z,22.80
2023-11-30T01:20:57.956Z,30.98
2023-11-30T01:24:00.744Z,27.95
2023-11-30T01:27:03.642Z,22.40
2023-11-30T01:30:06.835Z,18.77
2023-11-30T01:33:09.604Z,21.83
2023-11-30T01:36:12.421Z,17.35
2023-11-30T01:39:16.875Z,16.48
2023-11-30T01:42:19.605Z,19.98
2023-11-30T01:45:22.343Z,27.70
2023-11-30T01:48:25.271Z,25.43
2023-11-30T01:51:28.478Z,27.15
2023-11-30T01:54:31.577Z,19.48
2023-11-30T01:57:34.371Z,17.95
2023-11-30T02:00:38.081Z,21.60
2023-11-30T02:03:41.432Z,18.17
2023-11-30T02:06:47.716Z,20.65
2023-11-30T02:09:50.447Z,18.45
2023-11-30T02:12:53.118Z,21.27
2023-11-30T02:15:55.745Z,27.37
2023-11-30T02:18:58.900Z,15.47
2023-11-30T02:22:01.595Z,22.63
2023-11-30T02:25:04.532Z,23.92
2023-11-30T02:28:07.229Z,22.67
2023-11-30T02:31:10.017Z,19.03
2023-11-30T02:34:12.639Z,24.17
2023-11-30T02:37:15.319Z,26.83
2023-11-30T02:40:17.960Z,22.83
2023-11-30T02:43:20.662Z,19.20
2023-11-30T02:46:23.451Z,17.23
2023-11-30T02:49:26.098Z,22.83
2023-11-30T02:52:28.725Z,16.33
2023-11-30T02:55:31.356Z,22.15
2023-11-30T02:58:33.966Z,23.73
2023-11-30T03:01:46.855Z,24.07
2023-11-30T03:04:49.557Z,17.33
2023-11-30T03:07:53.133Z,21.10
2023-11-30T03:10:55.793Z,22.20
2023-11-30T03:13:58.448Z,18.83
2023-11-30T03:17:01.225Z,21.07
2023-11-30T03:20:04.003Z,22.70
2023-11-30T03:23:06.659Z,22.90
2023-11-30T03:26:09.294Z,16.80
2023-11-30T03:29:12.219Z,21.83
2023-11-30T03:32:15.296Z,19.87
2023-11-30T03:35:17.942Z,22.33
2023-11-30T03:38:20.668Z,17.42
2023-11-30T03:41:24.860Z,13.93
2023-11-30T03:44:27.618Z,17.98
2023-11-30T03:47:30.291Z,16.93
2023-11-30T03:50:33.009Z,15.43
2023-11-30T03:53:35.821Z,18.02
2023-11-30T03:56:38.588Z,18.05
2023-11-30T03:59:41.248Z,20.13
2023-11-30T04:02:44.048Z,16.67
2023-11-30T04:05:46.734Z,20.37
2023-11-30T04:08:52.659Z,21.95
2023-11-30T04:11:55.626Z,22.55
2023-11-30T04:14:58.344Z,18.05
2023-11-30T04:18:01.409Z,19.80
2023-11-30T04:21:06.909Z,19.63
2023-11-30T04:24:09.774Z,17.02
2023-11-30T04:27:13.267Z,17.38
2023-11-30T04:30:16.116Z,19.70
2023-11-30T04:33:19.135Z,20.73
2023-11-30T04:36:21.846Z,13.47
2023-11-30T04:39:25.371Z,14.10
2023-11-30T04:42:29.353Z,16.92
2023-11-30T04:45:32.479Z,14.38
2023-11-30T04:48:35.186Z,10.97
2023-11-30T04:51:38.484Z,15.40
2023-11-30T04:54:41.275Z,19.23
2023-11-30T04:57:43.978Z,18.02
2023-11-30T05:00:46.659Z,18.45
2023-11-30T05:03:49.450Z,12.80
2023-11-30T05:06:52.199Z,20.70
2023-11-30T05:09:55.031Z,17.90
2023-11-30T05:12:57.731Z,19.30
2023-11-30T05:16:01.151Z,14.23
2023-11-30T05:19:03.785Z,15.40
2023-11-30T05:22:06.401Z,15.60
2023-11-30T05:25:09.231Z,17.33
2023-11-30T05:28:11.934Z,17.95
2023-11-30T05:31:14.835Z,14.82
2023-11-30T05:34:17.645Z,19.83
2023-11-30T05:37:20.411Z,25.37
2023-11-30T05:40:23.030Z,20.30
2023-11-30T05:43:25.738Z,23.50
2023-11-30T05:46:28.357Z,24.27
2023-11-30T05:49:30.967Z,18.20
2023-11-30T05:52:33.655Z,22.90
2023-11-30T05:55:37.023Z,25.13
2023-11-30T05:58:39.826Z,19.73
2023-11-30T06:01:42.514Z,21.23
2023-11-30T06:04:53.116Z,18.60
2023-11-30T06:07:55.937Z,17.97
2023-11-30T06:10:58.612Z,14.38
2023-11-30T06:14:02.004Z,23.63
2023-11-30T06:17:05.173Z,19.90
2023-11-30T06:20:11.792Z,26.23
2023-11-30T06:23:14.685Z,24.83
2023-11-30T06:26:17.360Z,25.13
2023-11-30T06:29:20.317Z,26.02
2023-11-30T06:32:23.628Z,25.98
2023-11-30T06:35:27.228Z,30.23
2023-11-30T06:38:31.054Z,31.43
2023-11-30T06:41:33.726Z,27.42
2023-11-30T06:44:36.497Z,32.75
2023-11-30T06:47:39.627Z,31.20
2023-11-30T06:50:42.321Z,29.83
2023-11-30T06:53:46.512Z,37.67
2023-11-30T06:56:49.982Z,27.33
2023-11-30T06:59:54.203Z,24.15
2023-11-30T07:02:57.033Z,54.50
2023-11-30T07:06:02.861Z,47.93
2023-11-30T07:09:07.123Z,15.80
2023-11-30T07:12:12.924Z,16.98
2023-11-30T07:15:17.339Z,15.68
2023-11-30T07:18:21.244Z,19.77
2023-11-30T07:21:24.138Z,18.93
2023-11-30T07:24:26.894Z,14.97
2023-11-30T07:27:29.680Z,20.90
2023-11-30T07:30:32.447Z,20.67
2023-11-30T07:33:40.974Z,25.08
2023-11-30T07:36:43.853Z,28.00
2023-11-30T07:39:46.830Z,23.33
2023-11-30T07:42:57.465Z,28.95
2023-11-30T07:46:01.059Z,20.52
2023-11-30T07:49:05.718Z,19.92
2023-11-30T07:52:08.753Z,23.43
2023-11-30T07:55:14.864Z,21.87
2023-11-30T07:58:19.026Z,27.98
2023-11-30T08:01:21.767Z,26.50
2023-11-30T08:04:24.657Z,28.23
2023-11-30T08:07:27.874Z,32.07
2023-11-30T08:10:30.580Z,26.23
2023-11-30T08:13:34.653Z,23.15
2023-11-30T08:16:39.895Z,28.70
2023-11-30T08:19:44.446Z,33.75
2023-11-30T08:22:47.102Z,32.20
2023-11-30T08:25:49.847Z,26.27
2023-11-30T08:28:52.562Z,21.55
2023-11-30T08:31:55.236Z,22.45
2023-11-30T08:34:57.906Z,17.80
2023-11-30T08:38:00.578Z,20.40
2023-11-30T08:41:04.473Z,21.13
2023-11-30T08:44:07.225Z,17.85
2023-11-30T08:47:09.923Z,21.40
2023-11-30T08:50:13.299Z,28.83
2023-11-30T08:53:17.269Z,30.43
2023-11-30T08:56:20.269Z,36.47
2023-11-30T08:59:22.940Z,32.55
2023-11-30T09:02:25.961Z,31.95
2023-11-30T09:05:28.749Z,28.30
2023-11-30T09:08:31.532Z,24.17
2023-11-30T09:11:35.464Z,24.17
2023-11-30T09:14:38.410Z,22.50
2023-11-30T09:17:41.675Z,23.25
2023-11-30T09:20:45.268Z,22.42
2023-11-30T09:23:47.931Z,26.07
2023-11-30T09:26:52.787Z,27.87
2023-11-30T09:29:57.477Z,29.00
2023-11-30T09:33:00.505Z,25.38
2023-11-30T09:36:03.572Z,24.80
2023-11-30T09:39:09.324Z,31.77
2023-11-30T09:42:17.467Z,26.60
2023-11-30T09:45:21.424Z,32.65
2023-11-30T09:48:24.412Z,37.88
2023-11-30T09:51:39.734Z,35.88
2023-11-30T09:54:43.368Z,39.40
2023-11-30T09:57:46.164Z,35.83
2023-11-30T10:00:49.090Z,41.42
2023-11-30T10:03:54.373Z,31.42
2023-11-30T10:06:57.901Z,29.23
2023-11-30T10:10:05.011Z,29.17
2023-11-30T10:13:09.277Z,32.10
2023-11-30T10:16:12.205Z,29.70
2023-11-30T10:19:15.062Z,29.30
2023-11-30T10:22:17.796Z,27.25
2023-11-30T10:25:22.072Z,28.37
2023-11-30T10:28:24.944Z,23.33
2023-11-30T10:31:30.604Z,23.58
2023-11-30T10:34:43.993Z,21.45
2023-11-30T10:37:51.603Z,21.60
2023-11-30T10:41:00.952Z,24.10
2023-11-30T10:44:06.200Z,22.07
2023-11-30T10:47:12.518Z,27.30
2023-11-30T10:50:16.627Z,23.55
2023-11-30T10:53:36.811Z,21.10
2023-11-30T10:56:40.253Z,21.53
2023-11-30T10:59:49.348Z,24.60
2023-11-30T11:02:53.442Z,25.40
2023-11-30T11:05:57.430Z,23.77
2023-11-30T11:09:02.243Z,23.55
2023-11-30T11:12:05.366Z,24.93
2023-11-30T11:15:15.797Z,25.43
2023-11-30T11:18:19.718Z,29.65
2023-11-30T11:21:26.704Z,26.98
2023-11-30T11:24:30.766Z,29.35
2023-11-30T11:27:34.640Z,25.30
2023-11-30T11:30:45.549Z,30.00
2023-11-30T11:33:49.898Z,24.88
2023-11-30T11:36:52.609Z,26.67
2023-11-30T11:39:56.344Z,23.45
2023-11-30T11:43:00.649Z,23.00
2023-11-30T11:46:03.475Z,24.53
2023-11-30T11:49:06.308Z,27.55
2023-11-30T11:52:10.257Z,26.42
2023-11-30T11:55:14.914Z,26.10
2023-11-30T11:58:17.599Z,27.23
2023-11-30T12:01:20.314Z,29.73
2023-11-30T12:04:27.641Z,25.60
2023-11-30T12:07:30.330Z,26.00
2023-11-30T12:10:40.761Z,24.05
2023-11-30T12:13:43.690Z,28.70
2023-11-30T12:16:46.431Z,31.33
2023-11-30T12:19:49.102Z,29.67
2023-11-30T12:22:52.492Z,28.33
2023-11-30T12:25:56.648Z,30.50
2023-11-30T12:28:59.621Z,28.47
2023-11-30T12:32:02.454Z,27.37
2023-11-30T12:35:06.152Z,29.17
2023-11-30T12:38:09.500Z,26.83
2023-11-30T12:41:12.179Z,28.95
2023-11-30T12:44:14.973Z,31.40
2023-11-30T12:47:17.648Z,30.50
2023-11-30T12:50:20.832Z,26.15
2023-11-30T12:53:23.585Z,26.92
2023-11-30T12:56:28.860Z,31.25
2023-11-30T12:59:31.637Z,32.13
2023-11-30T13:02:34.375Z,32.53
2023-11-30T13:05:37.060Z,32.28
2023-11-30T13:08:39.720Z,29.35
2023-11-30T13:11:43.475Z,27.63
2023-11-30T13:14:46.102Z,29.10
2023-11-30T13:17:49.356Z,33.77
2023-11-30T13:20:52.110Z,28.50
2023-11-30T13:23:54.765Z,28.45
2023-11-30T13:26:57.417Z,32.92
2023-11-30T13:30:01.146Z,30.33
2023-11-30T13:33:05.719Z,29.70
2023-11-30T13:36:09.183Z,31.92
2023-11-30T13:39:12.135Z,31.83
2023-11-30T13:42:14.857Z,29.65
2023-11-30T13:45:17.731Z,36.30
2023-11-30T13:48:20.541Z,30.73
2023-11-30T13:51:23.639Z,35.70
2023-11-30T13:54:26.559Z,34.58
2023-11-30T13:57:29.400Z,32.92
2023-11-30T14:00:35.475Z,31.33
2023-11-30T14:03:38.916Z,39.37
2023-11-30T14:06:42.262Z,49.17
2023-11-30T14:09:45.320Z,34.83
2023-11-30T14:12:48.556Z,37.35
2023-11-30T14:15:51.357Z,41.87
2023-11-30T14:18:54.087Z,42.70
2023-11-30T14:21:56.831Z,34.97
2023-11-30T14:25:00.438Z,35.78
2023-11-30T14:28:07.821Z,37.22
2023-11-30T14:31:19.481Z,30.57
2023-11-30T14:34:22.372Z,38.47
2023-11-30T14:37:25.119Z,39.20
2023-11-30T14:40:28.189Z,32.33
2023-11-30T14:43:31.111Z,32.22
2023-11-30T14:46:35.216Z,34.43
2023-11-30T14:49:39.052Z,39.63
2023-11-30T14:52:45.475Z,39.95
2023-11-30T14:55:49.594Z,37.67
2023-11-30T14:58:52.757Z,40.80
2023-11-30T15:01:55.531Z,47.43
2023-11-30T15:04:58.323Z,48.33
2023-11-30T15:08:00.964Z,54.20
2023-11-30T15:11:03.823Z,60.53
2023-11-30T15:14:06.766Z,57.15
2023-11-30T15:17:11.201Z,42.73
2023-11-30T15:20:14.545Z,45.93
2023-11-30T15:23:17.446Z,39.53
2023-11-30T15:26:20.035Z,39.20
2023-11-30T15:29:22.747Z,35.53
2023-11-30T15:32:25.438Z,39.47
2023-11-30T15:35:29.776Z,38.23
2023-11-30T15:38:34.107Z,42.55
2023-11-30T15:41:40.847Z,38.35
2023-11-30T15:44:43.702Z,35.38
2023-11-30T15:47:46.608Z,39.03
2023-11-30T15:50:49.343Z,40.67
2023-11-30T15:53:52.836Z,38.33
2023-11-30T15:56:58.044Z,35.55
2023-11-30T16:00:00.724Z,45.83
2023-11-30T16:03:05.769Z,48.47
2023-11-30T16:06:12.058Z,52.03
2023-11-30T16:09:14.764Z,46.55
2023-11-30T16:12:17.468Z,43.10
2023-11-30T16:15:20.209Z,43.10
2023-11-30T16:18:23.415Z,55.10
2023-11-30T16:21:28.710Z,40.03
2023-11-30T16:24:31.992Z,33.28
2023-11-30T16:27:34.692Z,32.45
2023-11-30T16:30:37.403Z,38.85
2023-11-30T16:33:43.156Z,40.40
2023-11-30T16:36:46.804Z,36.13
2023-11-30T16:39:49.742Z,35.35
2023-11-30T16:42:52.510Z,30.95
2023-11-30T16:45:55.322Z,32.63
2023-11-30T16:48:59.224Z,39.87
2023-11-30T16:52:02.023Z,36.57
2023-11-30T16:55:05.395Z,36.95
2023-11-30T16:58:08.035Z,35.83
2023-11-30T17:01:11.340Z,32.55
2023-11-30T17:04:14.179Z,43.27
2023-11-30T17:07:16.822Z,33.73
2023-11-30T17:10:19.486Z,38.00
2023-11-30T17:13:23.613Z,32.95
2023-11-30T17:16:26.428Z,37.90
2023-11-30T17:19:29.157Z,62.97
2023-11-30T17:22:31.881Z,58.57
2023-11-30T17:25:34.474Z,48.88
2023-11-30T17:28:37.508Z,47.15
2023-11-30T17:31:40.223Z,49.78
2023-11-30T17:34:43.156Z,40.27
2023-11-30T17:37:45.947Z,54.77
2023-11-30T17:40:48.666Z,46.10
2023-11-30T17:43:51.391Z,45.50
2023-11-30T17:46:54.346Z,42.67
2023-11-30T17:49:57.199Z,37.27
2023-11-30T17:53:02.001Z,35.60
2023-11-30T17:56:05.100Z,41.58
2023-11-30T17:59:07.818Z,53.20
2023-11-30T18:02:10.826Z,38.70
2023-11-30T18:05:13.774Z,40.50
2023-11-30T18:08:16.444Z,44.43
2023-11-30T18:11:19.428Z,42.63
2023-11-30T18:14:23.553Z,32.72
2023-11-30T18:17:26.319Z,38.70
2023-11-30T18:20:29.101Z,34.40
2023-11-30T18:23:31.747Z,33.47
2023-11-30T18:26:34.443Z,42.03
2023-11-30T18:29:37.134Z,46.25
2023-11-30T18:32:43.169Z,46.40
2023-11-30T18:35:46.694Z,36.97
2023-11-30T18:38:51.574Z,38.00
2023-11-30T18:41:56.336Z,37.05
2023-11-30T18:44:59.135Z,41.60
2023-11-30T18:48:01.941Z,45.00
2023-11-30T18:51:06.822Z,35.47
2023-11-30T18:54:09.564Z,39.27
2023-11-30T18:57:12.241Z,38.20
2023-11-30T19:00:15.580Z,35.65
2023-11-30T19:03:18.285Z,51.28
2023-11-30T19:06:22.472Z,58.80
2023-11-30T19:09:25.229Z,54.53
2023-11-30T19:12:27.915Z,49.58
2023-11-30T19:15:34.030Z,60.67
2023-11-30T19:18:36.862Z,54.60
2023-11-30T19:21:43.644Z,51.77
2023-11-30T19:24:46.415Z,52.00
2023-11-30T19:27:49.254Z,52.22
2023-11-30T19:30:51.949Z,54.28
2023-11-30T19:33:54.667Z,46.95
2023-11-30T19:36:57.471Z,59.00
2023-11-30T19:40:02.279Z,56.93
2023-11-30T19:43:05.427Z,56.08
2023-11-30T19:46:08.163Z,54.65
2023-11-30T19:49:10.905Z,68.78
2023-11-30T19:52:13.815Z,129.63
2023-11-30T19:55:16.521Z,85.37
2023-11-30T19:58:19.158Z,86.75
2023-11-30T20:01:25.023Z,103.70
2023-11-30T20:04:28.521Z,109.22
2023-11-30T20:07:31.262Z,109.20
2023-11-30T20:10:33.923Z,95.80
2023-11-30T20:13:36.715Z,96.35
2023-11-30T20:16:43.104Z,86.72
2023-11-30T20:19:45.854Z,102.43
2023-11-30T20:22:48.491Z,80.77
2023-11-30T20:25:51.659Z,134.50
2023-11-30T20:28:54.314Z,123.57
2023-11-30T20:31:56.998Z,121.43
2023-11-30T20:34:59.673Z,105.75
2023-11-30T20:38:02.499Z,95.67
2023-11-30T20:41:05.535Z,75.23
2023-11-30T20:44:08.334Z,80.50
2023-11-30T20:47:10.982Z,101.35
2023-11-30T20:50:13.729Z,105.85
2023-11-30T20:53:16.388Z,121.17
2023-11-30T20:56:19.125Z,224.90
2023-11-30T20:59:21.763Z,148.07
2023-11-30T21:02:24.615Z,145.90
2023-11-30T21:05:27.503Z,126.00
2023-11-30T21:08:33.650Z,140.20
2023-11-30T21:11:42.421Z,133.20
2023-11-30T21:14:46.123Z,117.80
2023-11-30T21:17:48.819Z,128.63
2023-11-30T21:20:51.615Z,108.55
2023-11-30T21:23:54.398Z,119.53
2023-11-30T21:26:57.142Z,109.70
2023-11-30T21:30:00.037Z,136.95
2023-11-30T21:33:02.794Z,128.82
2023-11-30T21:36:05.983Z,116.55
2023-11-30T21:39:10.139Z,119.57
2023-11-30T21:42:12.838Z,117.63
2023-11-30T21:45:15.575Z,235.80
2023-11-30T21:48:18.344Z,233.32
2023-11-30T21:51:21.020Z,150.45
2023-11-30T21:54:23.667Z,139.60
2023-11-30T21:57:26.637Z,63.83
2023-11-30T22:00:29.400Z,60.60
2023-11-30T22:03:32.315Z,55.22
2023-11-30T22:06:35.171Z,94.88
2023-11-30T22:09:39.150Z,56.53
2023-11-30T22:12:42.502Z,70.03
2023-11-30T22:15:45.234Z,65.30
2023-11-30T22:18:47.964Z,64.40
2023-11-30T22:21:50.649Z,47.95
2023-11-30T22:24:53.372Z,51.47
2023-11-30T22:27:56.243Z,49.13
2023-11-30T22:30:59.807Z,45.00
2023-11-30T22:34:02.660Z,29.27
2023-11-30T22:37:05.475Z,32.78
2023-11-30T22:40:09.128Z,31.23
2023-11-30T22:43:11.830Z,34.33
2023-11-30T22:46:19.105Z,35.63
2023-11-30T22:49:22.188Z,45.72
2023-11-30T22:52:26.765Z,40.65
2023-11-30T22:55:29.647Z,37.60
2023-11-30T22:58:32.386Z,42.63
2023-11-30T23:01:35.563Z,35.17
2023-11-30T23:04:39.636Z,30.08
2023-11-30T23:07:44.260Z,34.63
2023-11-30T23:10:46.899Z,29.33
2023-11-30T23:13:49.524Z,25.63
2023-11-30T23:16:52.210Z,24.10
2023-11-30T23:19:54.866Z,27.20
2023-11-30T23:22:57.519Z,30.10
2023-11-30T23:26:01.054Z,26.97
2023-11-30T23:29:04.352Z,24.40
2023-11-30T23:32:07.840Z,25.25
2023-11-30T23:35:10.455Z,24.55
2023-11-30T23:38:13.136Z,24.20
2023-11-30T23:41:15.885Z,25.23
2023-11-30T23:44:18.574Z,21.87
2023-11-30T23:47:21.226Z,24.27
2023-11-30T23:50:23.906Z,25.10
2023-11-30T23:53:26.560Z,26.70
2023-11-30T23:56:29.189Z,31.13
2023-11-30T23:59:31.926Z,24.07
